sensor_id;sensor_type;location;lat;lon;timestamp;temperature;humidity
3564;DHT22;1796;52.388;13.096;2023-05-02T00:00:27;11.90;99.90
3564;DHT22;1796;52.388;13.096;2023-05-02T00:02:54;11.80;99.90
3564;DHT22;1796;52.388;13.096;2023-05-02T00:05:21;11.90;99.90
3564;DHT22;1796;52.388;13.096;2023-05-02T00:07:50;11.80;99.90
3564;DHT22;1796;52.388;13.096;2023-05-02T00:10:17;11.80;99.90
3564;DHT22;1796;52.388;13.096;2023-05-02T00:12:44;11.80;99.90
3564;DHT22;1796;52.388;13.096;2023-05-02T00:15:11;11.70;99.90
3564;DHT22;1796;52.388;13.096;2023-05-02T00:17:39;11.70;99.90
3564;DHT22;1796;52.388;13.096;2023-05-02T00:20:07;11.70;99.90
3564;DHT22;1796;52.388;13.096;2023-05-02T00:22:35;11.70;99.90
3564;DHT22;1796;52.388;13.096;2023-05-02T00:25:04;11.60;99.90
3564;DHT22;1796;52.388;13.096;2023-05-02T00:27:31;11.60;99.90
3564;DHT22;1796;52.388;13.096;2023-05-02T00:29:58;11.60;99.90
3564;DHT22;1796;52.388;13.096;2023-05-02T00:32:25;11.50;99.90
3564;DHT22;1796;52.388;13.096;2023-05-02T00:34:52;11.60;99.90
3564;DHT22;1796;52.388;13.096;2023-05-02T00:37:19;11.50;99.90
3564;DHT22;1796;52.388;13.096;2023-05-02T00:39:46;11.50;99.90
3564;DHT22;1796;52.388;13.096;2023-05-02T00:42:14;11.40;99.90
3564;DHT22;1796;52.388;13.096;2023-05-02T00:44:41;11.40;99.90
3564;DHT22;1796;52.388;13.096;2023-05-02T00:47:09;11.40;99.90
3564;DHT22;1796;52.388;13.096;2023-05-02T00:49:36;11.30;99.90
3564;DHT22;1796;52.388;13.096;2023-05-02T00:52:03;11.30;99.90
3564;DHT22;1796;52.388;13.096;2023-05-02T00:54:30;11.30;99.90
3564;DHT22;1796;52.388;13.096;2023-05-02T00:56:57;11.20;99.90
3564;DHT22;1796;52.388;13.096;2023-05-02T00:59:25;11.20;99.90
3564;DHT22;1796;52.388;13.096;2023-05-02T01:02:04;11.20;99.90
3564;DHT22;1796;52.388;13.096;2023-05-02T01:04:41;11.10;99.90
3564;DHT22;1796;52.388;13.096;2023-05-02T01:07:19;11.10;99.90
3564;DHT22;1796;52.388;13.096;2023-05-02T01:09:56;11.10;99.90
3564;DHT22;1796;52.388;13.096;2023-05-02T01:12:27;11.10;99.90
3564;DHT22;1796;52.388;13.096;2023-05-02T01:15:01;11.00;99.90
3564;DHT22;1796;52.388;13.096;2023-05-02T01:17:32;11.00;99.90
3564;DHT22;1796;52.388;13.096;2023-05-02T01:20:03;10.90;99.90
3564;DHT22;1796;52.388;13.096;2023-05-02T01:22:32;10.90;99.90
3564;DHT22;1796;52.388;13.096;2023-05-02T01:25:06;10.90;99.90
3564;DHT22;1796;52.388;13.096;2023-05-02T01:27:42;10.90;99.90
3564;DHT22;1796;52.388;13.096;2023-05-02T01:30:11;10.90;99.90
3564;DHT22;1796;52.388;13.096;2023-05-02T01:32:43;10.80;99.90
3564;DHT22;1796;52.388;13.096;2023-05-02T01:35:13;10.80;99.90
3564;DHT22;1796;52.388;13.096;2023-05-02T01:37:42;10.80;99.90
3564;DHT22;1796;52.388;13.096;2023-05-02T01:40:12;10.70;99.90
3564;DHT22;1796;52.388;13.096;2023-05-02T01:42:40;10.70;99.90
3564;DHT22;1796;52.388;13.096;2023-05-02T01:45:11;10.60;99.90
3564;DHT22;1796;52.388;13.096;2023-05-02T01:47:39;10.60;99.90
3564;DHT22;1796;52.388;13.096;2023-05-02T01:50:11;10.50;99.90
3564;DHT22;1796;52.388;13.096;2023-05-02T01:52:38;10.50;99.90
3564;DHT22;1796;52.388;13.096;2023-05-02T01:55:10;10.40;99.90
3564;DHT22;1796;52.388;13.096;2023-05-02T01:57:41;10.30;99.90
3564;DHT22;1796;52.388;13.096;2023-05-02T02:00:10;10.30;99.90
3564;DHT22;1796;52.388;13.096;2023-05-02T02:02:40;10.20;99.90
3564;DHT22;1796;52.388;13.096;2023-05-02T02:05:08;10.20;99.90
3564;DHT22;1796;52.388;13.096;2023-05-02T02:07:36;10.20;99.90
3564;DHT22;1796;52.388;13.096;2023-05-02T02:10:04;10.00;99.90
3564;DHT22;1796;52.388;13.096;2023-05-02T02:12:35;10.00;99.90
3564;DHT22;1796;52.388;13.096;2023-05-02T02:15:08;10.00;99.90
3564;DHT22;1796;52.388;13.096;2023-05-02T02:17:38;9.90;99.90
3564;DHT22;1796;52.388;13.096;2023-05-02T02:20:09;9.80;99.90
3564;DHT22;1796;52.388;13.096;2023-05-02T02:22:38;9.90;99.90
3564;DHT22;1796;52.388;13.096;2023-05-02T02:25:08;9.80;99.90
3564;DHT22;1796;52.388;13.096;2023-05-02T02:27:36;9.90;99.90
3564;DHT22;1796;52.388;13.096;2023-05-02T02:30:04;9.80;99.90
3564;DHT22;1796;52.388;13.096;2023-05-02T02:32:31;9.80;99.90
3564;DHT22;1796;52.388;13.096;2023-05-02T02:34:59;9.80;99.90
3564;DHT22;1796;52.388;13.096;2023-05-02T02:37:30;9.70;99.90
3564;DHT22;1796;52.388;13.096;2023-05-02T02:40:03;9.70;99.90
3564;DHT22;1796;52.388;13.096;2023-05-02T02:42:35;9.70;99.90
3564;DHT22;1796;52.388;13.096;2023-05-02T02:45:15;9.70;99.90
3564;DHT22;1796;52.388;13.096;2023-05-02T02:47:46;9.80;99.90
3564;DHT22;1796;52.388;13.096;2023-05-02T02:50:21;9.70;99.90
3564;DHT22;1796;52.388;13.096;2023-05-02T02:52:54;9.70;99.90
3564;DHT22;1796;52.388;13.096;2023-05-02T02:55:30;9.80;99.90
3564;DHT22;1796;52.388;13.096;2023-05-02T02:58:06;9.70;99.90
3564;DHT22;1796;52.388;13.096;2023-05-02T03:00:35;9.80;99.90
3564;DHT22;1796;52.388;13.096;2023-05-02T03:03:02;9.80;99.90
3564;DHT22;1796;52.388;13.096;2023-05-02T03:05:32;9.80;99.90
3564;DHT22;1796;52.388;13.096;2023-05-02T03:07:59;9.90;99.90
3564;DHT22;1796;52.388;13.096;2023-05-02T03:10:26;9.90;99.90
3564;DHT22;1796;52.388;13.096;2023-05-02T03:12:53;9.90;99.90
3564;DHT22;1796;52.388;13.096;2023-05-02T03:15:44;9.80;99.90
3564;DHT22;1796;52.388;13.096;2023-05-02T03:18:23;9.90;99.90
3564;DHT22;1796;52.388;13.096;2023-05-02T03:20:51;9.80;99.90
3564;DHT22;1796;52.388;13.096;2023-05-02T03:23:18;9.80;99.90
3564;DHT22;1796;52.388;13.096;2023-05-02T03:25:45;9.80;99.90
3564;DHT22;1796;52.388;13.096;2023-05-02T03:28:12;9.80;99.90
3564;DHT22;1796;52.388;13.096;2023-05-02T03:30:39;9.90;99.90
3564;DHT22;1796;52.388;13.096;2023-05-02T03:33:06;9.90;99.90
3564;DHT22;1796;52.388;13.096;2023-05-02T03:35:33;9.90;99.90
3564;DHT22;1796;52.388;13.096;2023-05-02T03:38:01;9.80;99.90
3564;DHT22;1796;52.388;13.096;2023-05-02T03:40:28;9.80;99.90
3564;DHT22;1796;52.388;13.096;2023-05-02T03:42:55;9.80;99.90
3564;DHT22;1796;52.388;13.096;2023-05-02T03:45:22;9.80;99.90
3564;DHT22;1796;52.388;13.096;2023-05-02T03:47:48;9.90;99.90
3564;DHT22;1796;52.388;13.096;2023-05-02T03:50:15;9.90;99.90
3564;DHT22;1796;52.388;13.096;2023-05-02T03:52:42;10.00;99.90
3564;DHT22;1796;52.388;13.096;2023-05-02T03:55:11;10.00;99.90
3564;DHT22;1796;52.388;13.096;2023-05-02T03:57:38;10.10;99.90
3564;DHT22;1796;52.388;13.096;2023-05-02T04:00:06;10.10;99.90
3564;DHT22;1796;52.388;13.096;2023-05-02T04:02:33;10.20;99.90
3564;DHT22;1796;52.388;13.096;2023-05-02T04:04:59;10.10;99.90
3564;DHT22;1796;52.388;13.096;2023-05-02T04:07:26;10.10;99.90
3564;DHT22;1796;52.388;13.096;2023-05-02T04:09:53;10.20;99.90
3564;DHT22;1796;52.388;13.096;2023-05-02T04:12:21;10.30;99.90
3564;DHT22;1796;52.388;13.096;2023-05-02T04:14:48;10.30;99.90
3564;DHT22;1796;52.388;13.096;2023-05-02T04:17:15;10.40;99.90
3564;DHT22;1796;52.388;13.096;2023-05-02T04:19:42;10.50;99.90
3564;DHT22;1796;52.388;13.096;2023-05-02T04:22:09;10.60;99.90
3564;DHT22;1796;52.388;13.096;2023-05-02T04:24:36;10.70;99.90
3564;DHT22;1796;52.388;13.096;2023-05-02T04:27:03;10.70;99.90
3564;DHT22;1796;52.388;13.096;2023-05-02T04:29:31;10.70;99.90
3564;DHT22;1796;52.388;13.096;2023-05-02T04:31:58;10.80;99.90
3564;DHT22;1796;52.388;13.096;2023-05-02T04:34:25;10.80;99.90
3564;DHT22;1796;52.388;13.096;2023-05-02T04:36:52;10.90;99.90
3564;DHT22;1796;52.388;13.096;2023-05-02T04:39:19;10.90;99.90
3564;DHT22;1796;52.388;13.096;2023-05-02T04:41:46;11.00;99.90
3564;DHT22;1796;52.388;13.096;2023-05-02T04:44:13;11.00;99.90
3564;DHT22;1796;52.388;13.096;2023-05-02T04:46:42;10.90;99.90
3564;DHT22;1796;52.388;13.096;2023-05-02T04:49:09;10.80;99.90
3564;DHT22;1796;52.388;13.096;2023-05-02T04:51:36;10.80;99.90
3564;DHT22;1796;52.388;13.096;2023-05-02T04:54:03;10.90;99.90
3564;DHT22;1796;52.388;13.096;2023-05-02T04:56:30;10.90;99.90
3564;DHT22;1796;52.388;13.096;2023-05-02T04:58:56;11.00;99.90
3564;DHT22;1796;52.388;13.096;2023-05-02T05:01:23;11.10;99.90
3564;DHT22;1796;52.388;13.096;2023-05-02T05:03:53;11.20;99.90
3564;DHT22;1796;52.388;13.096;2023-05-02T05:06:20;11.30;99.90
3564;DHT22;1796;52.388;13.096;2023-05-02T05:08:47;11.30;99.90
3564;DHT22;1796;52.388;13.096;2023-05-02T05:11:14;11.30;99.90
3564;DHT22;1796;52.388;13.096;2023-05-02T05:13:41;11.30;99.90
3564;DHT22;1796;52.388;13.096;2023-05-02T05:16:08;11.40;99.90
3564;DHT22;1796;52.388;13.096;2023-05-02T05:18:35;11.50;99.90
3564;DHT22;1796;52.388;13.096;2023-05-02T05:21:06;11.70;99.90
3564;DHT22;1796;52.388;13.096;2023-05-02T05:23:33;11.80;99.90
3564;DHT22;1796;52.388;13.096;2023-05-02T05:26:08;12.00;99.90
3564;DHT22;1796;52.388;13.096;2023-05-02T05:28:35;12.20;99.90
3564;DHT22;1796;52.388;13.096;2023-05-02T05:31:04;12.20;99.90
3564;DHT22;1796;52.388;13.096;2023-05-02T05:33:32;12.00;99.90
3564;DHT22;1796;52.388;13.096;2023-05-02T05:36:03;11.90;99.90
3564;DHT22;1796;52.388;13.096;2023-05-02T05:38:31;12.00;99.90
3564;DHT22;1796;52.388;13.096;2023-05-02T05:40:58;12.00;99.90
3564;DHT22;1796;52.388;13.096;2023-05-02T05:43:25;12.00;99.90
3564;DHT22;1796;52.388;13.096;2023-05-02T05:45:53;11.90;99.90
3564;DHT22;1796;52.388;13.096;2023-05-02T05:48:20;12.00;99.90
3564;DHT22;1796;52.388;13.096;2023-05-02T05:50:48;12.10;99.90
3564;DHT22;1796;52.388;13.096;2023-05-02T05:53:14;12.40;99.90
3564;DHT22;1796;52.388;13.096;2023-05-02T05:55:43;12.80;99.90
3564;DHT22;1796;52.388;13.096;2023-05-02T05:58:10;13.20;99.90
3564;DHT22;1796;52.388;13.096;2023-05-02T06:00:37;13.50;99.90
3564;DHT22;1796;52.388;13.096;2023-05-02T06:03:05;14.10;99.90
3564;DHT22;1796;52.388;13.096;2023-05-02T06:05:32;14.40;99.90
3564;DHT22;1796;52.388;13.096;2023-05-02T06:07:59;14.70;99.90
3564;DHT22;1796;52.388;13.096;2023-05-02T06:10:26;15.20;99.90
3564;DHT22;1796;52.388;13.096;2023-05-02T06:12:54;15.30;99.90
3564;DHT22;1796;52.388;13.096;2023-05-02T06:15:21;15.30;99.90
3564;DHT22;1796;52.388;13.096;2023-05-02T06:17:49;15.50;99.90
3564;DHT22;1796;52.388;13.096;2023-05-02T06:20:16;15.60;99.90
3564;DHT22;1796;52.388;13.096;2023-05-02T06:22:43;15.80;99.90
3564;DHT22;1796;52.388;13.096;2023-05-02T06:25:10;15.40;99.90
3564;DHT22;1796;52.388;13.096;2023-05-02T06:27:37;15.20;99.90
3564;DHT22;1796;52.388;13.096;2023-05-02T06:30:07;15.00;99.90
3564;DHT22;1796;52.388;13.096;2023-05-02T06:32:33;14.60;99.90
3564;DHT22;1796;52.388;13.096;2023-05-02T06:35:00;14.60;99.90
3564;DHT22;1796;52.388;13.096;2023-05-02T06:37:32;14.90;99.90
3564;DHT22;1796;52.388;13.096;2023-05-02T06:39:58;15.00;99.90
3564;DHT22;1796;52.388;13.096;2023-05-02T06:42:25;15.00;99.90
3564;DHT22;1796;52.388;13.096;2023-05-02T06:44:52;15.00;99.90
3564;DHT22;1796;52.388;13.096;2023-05-02T06:47:20;14.60;99.90
3564;DHT22;1796;52.388;13.096;2023-05-02T06:49:49;14.40;99.90
3564;DHT22;1796;52.388;13.096;2023-05-02T06:52:16;14.20;99.90
3564;DHT22;1796;52.388;13.096;2023-05-02T06:54:42;13.80;99.90
3564;DHT22;1796;52.388;13.096;2023-05-02T06:57:09;13.40;99.90
3564;DHT22;1796;52.388;13.096;2023-05-02T06:59:36;13.20;99.90
3564;DHT22;1796;52.388;13.096;2023-05-02T07:02:03;13.10;99.90
3564;DHT22;1796;52.388;13.096;2023-05-02T07:04:31;13.30;99.90
3564;DHT22;1796;52.388;13.096;2023-05-02T07:06:58;13.30;99.90
3564;DHT22;1796;52.388;13.096;2023-05-02T07:09:25;13.50;99.90
3564;DHT22;1796;52.388;13.096;2023-05-02T07:11:52;13.50;99.90
3564;DHT22;1796;52.388;13.096;2023-05-02T07:14:18;13.50;99.90
3564;DHT22;1796;52.388;13.096;2023-05-02T07:16:46;13.50;99.90
3564;DHT22;1796;52.388;13.096;2023-05-02T07:19:13;13.70;99.90
3564;DHT22;1796;52.388;13.096;2023-05-02T07:21:41;14.00;99.90
3564;DHT22;1796;52.388;13.096;2023-05-02T07:24:08;14.30;99.90
3564;DHT22;1796;52.388;13.096;2023-05-02T07:26:35;14.50;99.90
3564;DHT22;1796;52.388;13.096;2023-05-02T07:29:01;14.50;99.90
3564;DHT22;1796;52.388;13.096;2023-05-02T07:31:31;14.40;99.90
3564;DHT22;1796;52.388;13.096;2023-05-02T07:33:58;14.10;99.90
3564;DHT22;1796;52.388;13.096;2023-05-02T07:36:24;14.00;99.90
3564;DHT22;1796;52.388;13.096;2023-05-02T07:38:53;13.90;99.90
3564;DHT22;1796;52.388;13.096;2023-05-02T07:41:20;13.80;99.90
3564;DHT22;1796;52.388;13.096;2023-05-02T07:43:47;14.00;99.90
3564;DHT22;1796;52.388;13.096;2023-05-02T07:46:14;13.90;99.90
3564;DHT22;1796;52.388;13.096;2023-05-02T07:48:41;13.80;99.90
3564;DHT22;1796;52.388;13.096;2023-05-02T07:51:09;13.90;99.90
3564;DHT22;1796;52.388;13.096;2023-05-02T07:53:36;14.00;99.90
3564;DHT22;1796;52.388;13.096;2023-05-02T07:56:05;13.80;99.90
3564;DHT22;1796;52.388;13.096;2023-05-02T07:58:34;14.10;99.90
3564;DHT22;1796;52.388;13.096;2023-05-02T08:01:01;14.50;99.90
3564;DHT22;1796;52.388;13.096;2023-05-02T08:03:28;14.60;99.90
3564;DHT22;1796;52.388;13.096;2023-05-02T08:05:56;14.70;99.90
3564;DHT22;1796;52.388;13.096;2023-05-02T08:08:22;14.50;99.90
3564;DHT22;1796;52.388;13.096;2023-05-02T08:10:49;14.70;99.90
3564;DHT22;1796;52.388;13.096;2023-05-02T08:13:18;15.10;99.90
3564;DHT22;1796;52.388;13.096;2023-05-02T08:15:45;15.60;99.90
3564;DHT22;1796;52.388;13.096;2023-05-02T08:18:11;15.90;99.90
3564;DHT22;1796;52.388;13.096;2023-05-02T08:20:38;16.20;99.90
3564;DHT22;1796;52.388;13.096;2023-05-02T08:23:05;16.60;99.90
3564;DHT22;1796;52.388;13.096;2023-05-02T08:25:32;16.70;99.90
3564;DHT22;1796;52.388;13.096;2023-05-02T08:27:58;16.90;99.90
3564;DHT22;1796;52.388;13.096;2023-05-02T08:30:27;17.30;99.90
3564;DHT22;1796;52.388;13.096;2023-05-02T08:32:53;17.60;99.90
3564;DHT22;1796;52.388;13.096;2023-05-02T08:35:20;18.00;99.90
3564;DHT22;1796;52.388;13.096;2023-05-02T08:37:47;18.20;99.90
3564;DHT22;1796;52.388;13.096;2023-05-02T08:40:16;18.20;99.90
3564;DHT22;1796;52.388;13.096;2023-05-02T08:42:43;18.20;99.90
3564;DHT22;1796;52.388;13.096;2023-05-02T08:45:12;18.20;99.90
3564;DHT22;1796;52.388;13.096;2023-05-02T08:47:41;18.60;99.90
3564;DHT22;1796;52.388;13.096;2023-05-02T08:50:09;18.70;99.90
3564;DHT22;1796;52.388;13.096;2023-05-02T08:52:37;18.60;99.90
3564;DHT22;1796;52.388;13.096;2023-05-02T08:55:06;17.80;99.90
3564;DHT22;1796;52.388;13.096;2023-05-02T08:57:33;17.60;99.90
3564;DHT22;1796;52.388;13.096;2023-05-02T08:59:59;17.80;99.90
3564;DHT22;1796;52.388;13.096;2023-05-02T09:02:50;17.80;99.90
3564;DHT22;1796;52.388;13.096;2023-05-02T09:05:23;17.70;99.90
3564;DHT22;1796;52.388;13.096;2023-05-02T09:07:51;18.00;99.90
3564;DHT22;1796;52.388;13.096;2023-05-02T09:10:18;17.80;99.90
3564;DHT22;1796;52.388;13.096;2023-05-02T09:12:46;17.00;99.90
3564;DHT22;1796;52.388;13.096;2023-05-02T09:15:14;16.80;99.90
3564;DHT22;1796;52.388;13.096;2023-05-02T09:17:45;16.40;99.90
3564;DHT22;1796;52.388;13.096;2023-05-02T09:20:15;16.30;99.90
3564;DHT22;1796;52.388;13.096;2023-05-02T09:22:47;16.20;99.90
3564;DHT22;1796;52.388;13.096;2023-05-02T09:25:15;16.40;99.90
3564;DHT22;1796;52.388;13.096;2023-05-02T09:27:49;16.40;99.90
3564;DHT22;1796;52.388;13.096;2023-05-02T09:30:18;16.60;99.90
3564;DHT22;1796;52.388;13.096;2023-05-02T09:32:46;16.80;99.90
3564;DHT22;1796;52.388;13.096;2023-05-02T09:35:17;16.70;99.90
3564;DHT22;1796;52.388;13.096;2023-05-02T09:37:52;16.70;99.90
3564;DHT22;1796;52.388;13.096;2023-05-02T09:40:19;16.80;99.90
3564;DHT22;1796;52.388;13.096;2023-05-02T09:42:46;16.70;99.90
3564;DHT22;1796;52.388;13.096;2023-05-02T09:45:20;16.30;99.90
3564;DHT22;1796;52.388;13.096;2023-05-02T09:47:47;16.00;99.90
3564;DHT22;1796;52.388;13.096;2023-05-02T09:50:35;15.70;99.90
3564;DHT22;1796;52.388;13.096;2023-05-02T09:53:04;15.60;99.90
3564;DHT22;1796;52.388;13.096;2023-05-02T09:55:31;15.50;99.90
3564;DHT22;1796;52.388;13.096;2023-05-02T09:57:58;15.20;99.90
3564;DHT22;1796;52.388;13.096;2023-05-02T10:00:42;14.90;99.90
3564;DHT22;1796;52.388;13.096;2023-05-02T10:03:10;14.60;99.90
3564;DHT22;1796;52.388;13.096;2023-05-02T10:05:43;14.30;99.90
3564;DHT22;1796;52.388;13.096;2023-05-02T10:08:11;14.10;99.90
3564;DHT22;1796;52.388;13.096;2023-05-02T10:10:39;13.80;99.90
3564;DHT22;1796;52.388;13.096;2023-05-02T10:13:09;13.40;99.90
3564;DHT22;1796;52.388;13.096;2023-05-02T10:15:42;13.30;99.90
3564;DHT22;1796;52.388;13.096;2023-05-02T10:18:12;13.20;99.90
3564;DHT22;1796;52.388;13.096;2023-05-02T10:20:43;13.00;99.90
3564;DHT22;1796;52.388;13.096;2023-05-02T10:23:14;12.70;99.90
3564;DHT22;1796;52.388;13.096;2023-05-02T10:25:42;12.40;99.90
3564;DHT22;1796;52.388;13.096;2023-05-02T10:28:09;12.10;99.90
3564;DHT22;1796;52.388;13.096;2023-05-02T10:30:38;11.90;99.90
3564;DHT22;1796;52.388;13.096;2023-05-02T10:33:05;11.80;99.90
3564;DHT22;1796;52.388;13.096;2023-05-02T10:35:32;11.60;99.90
3564;DHT22;1796;52.388;13.096;2023-05-02T10:38:00;11.50;99.90
3564;DHT22;1796;52.388;13.096;2023-05-02T10:40:28;11.30;99.90
3564;DHT22;1796;52.388;13.096;2023-05-02T10:42:56;11.40;99.90
3564;DHT22;1796;52.388;13.096;2023-05-02T10:45:30;11.50;99.90
3564;DHT22;1796;52.388;13.096;2023-05-02T10:48:14;11.70;99.90
3564;DHT22;1796;52.388;13.096;2023-05-02T10:50:44;11.80;99.90
3564;DHT22;1796;52.388;13.096;2023-05-02T10:53:24;11.80;99.90
3564;DHT22;1796;52.388;13.096;2023-05-02T10:56:14;11.80;99.90
3564;DHT22;1796;52.388;13.096;2023-05-02T10:58:41;11.70;99.90
3564;DHT22;1796;52.388;13.096;2023-05-02T11:01:36;11.60;99.90
3564;DHT22;1796;52.388;13.096;2023-05-02T11:04:08;11.40;99.90
3564;DHT22;1796;52.388;13.096;2023-05-02T11:06:37;11.20;99.90
3564;DHT22;1796;52.388;13.096;2023-05-02T11:09:32;11.10;99.90
3564;DHT22;1796;52.388;13.096;2023-05-02T11:11:59;11.20;99.90
3564;DHT22;1796;52.388;13.096;2023-05-02T11:14:46;11.40;99.90
3564;DHT22;1796;52.388;13.096;2023-05-02T11:17:15;11.80;99.90
3564;DHT22;1796;52.388;13.096;2023-05-02T11:22:49;12.20;99.90
3564;DHT22;1796;52.388;13.096;2023-05-02T11:25:36;12.30;99.90
3564;DHT22;1796;52.388;13.096;2023-05-02T11:28:05;12.30;99.90
3564;DHT22;1796;52.388;13.096;2023-05-02T11:30:37;12.30;99.90
3564;DHT22;1796;52.388;13.096;2023-05-02T11:33:14;12.40;99.90
3564;DHT22;1796;52.388;13.096;2023-05-02T11:35:43;12.70;99.90
3564;DHT22;1796;52.388;13.096;2023-05-02T11:38:12;12.80;99.90
3564;DHT22;1796;52.388;13.096;2023-05-02T11:40:49;12.70;99.90
3564;DHT22;1796;52.388;13.096;2023-05-02T11:43:18;13.00;99.90
3564;DHT22;1796;52.388;13.096;2023-05-02T11:45:46;12.80;99.90
3564;DHT22;1796;52.388;13.096;2023-05-02T11:48:15;12.80;99.90
3564;DHT22;1796;52.388;13.096;2023-05-02T11:50:43;12.80;99.90
3564;DHT22;1796;52.388;13.096;2023-05-02T11:53:11;12.70;99.90
3564;DHT22;1796;52.388;13.096;2023-05-02T11:55:45;12.70;99.90
3564;DHT22;1796;52.388;13.096;2023-05-02T11:58:13;12.50;99.90
3564;DHT22;1796;52.388;13.096;2023-05-02T12:00:40;12.40;99.90
3564;DHT22;1796;52.388;13.096;2023-05-02T12:03:27;12.50;99.90
3564;DHT22;1796;52.388;13.096;2023-05-02T12:05:55;12.30;99.90
3564;DHT22;1796;52.388;13.096;2023-05-02T12:08:23;12.50;99.90
3564;DHT22;1796;52.388;13.096;2023-05-02T12:10:54;12.70;99.90
3564;DHT22;1796;52.388;13.096;2023-05-02T12:13:24;13.10;99.90
3564;DHT22;1796;52.388;13.096;2023-05-02T12:15:52;13.60;99.90
3564;DHT22;1796;52.388;13.096;2023-05-02T12:18:22;13.60;99.90
3564;DHT22;1796;52.388;13.096;2023-05-02T12:20:50;13.80;99.90
3564;DHT22;1796;52.388;13.096;2023-05-02T12:23:18;14.10;99.90
3564;DHT22;1796;52.388;13.096;2023-05-02T12:25:46;14.20;99.90
3564;DHT22;1796;52.388;13.096;2023-05-02T12:28:16;14.10;99.90
3564;DHT22;1796;52.388;13.096;2023-05-02T12:30:46;14.10;99.90
3564;DHT22;1796;52.388;13.096;2023-05-02T12:33:13;14.00;99.90
3564;DHT22;1796;52.388;13.096;2023-05-02T12:35:41;13.70;99.90
3564;DHT22;1796;52.388;13.096;2023-05-02T12:38:10;13.90;99.90
3564;DHT22;1796;52.388;13.096;2023-05-02T12:40:37;13.80;99.90
3564;DHT22;1796;52.388;13.096;2023-05-02T12:43:05;13.70;99.90
3564;DHT22;1796;52.388;13.096;2023-05-02T12:45:36;13.80;99.90
3564;DHT22;1796;52.388;13.096;2023-05-02T12:48:20;13.90;99.90
3564;DHT22;1796;52.388;13.096;2023-05-02T12:50:48;13.50;99.90
3564;DHT22;1796;52.388;13.096;2023-05-02T12:53:15;13.40;99.90
3564;DHT22;1796;52.388;13.096;2023-05-02T12:55:42;13.20;99.90
3564;DHT22;1796;52.388;13.096;2023-05-02T12:58:10;13.20;99.90
3564;DHT22;1796;52.388;13.096;2023-05-02T13:00:41;13.20;99.90
3564;DHT22;1796;52.388;13.096;2023-05-02T13:03:08;13.50;99.90
3564;DHT22;1796;52.388;13.096;2023-05-02T13:05:35;13.60;99.90
3564;DHT22;1796;52.388;13.096;2023-05-02T13:08:02;13.90;99.90
3564;DHT22;1796;52.388;13.096;2023-05-02T13:10:30;13.50;99.90
3564;DHT22;1796;52.388;13.096;2023-05-02T13:12:57;13.50;99.90
3564;DHT22;1796;52.388;13.096;2023-05-02T13:15:24;13.80;99.90
3564;DHT22;1796;52.388;13.096;2023-05-02T13:17:53;14.10;99.90
3564;DHT22;1796;52.388;13.096;2023-05-02T13:20:20;14.40;99.90
3564;DHT22;1796;52.388;13.096;2023-05-02T13:22:47;14.70;99.90
3564;DHT22;1796;52.388;13.096;2023-05-02T13:25:14;14.80;99.90
3564;DHT22;1796;52.388;13.096;2023-05-02T13:27:40;14.60;99.90
3564;DHT22;1796;52.388;13.096;2023-05-02T13:30:08;14.60;99.90
3564;DHT22;1796;52.388;13.096;2023-05-02T13:32:36;14.20;99.90
3564;DHT22;1796;52.388;13.096;2023-05-02T13:35:06;14.20;99.90
3564;DHT22;1796;52.388;13.096;2023-05-02T13:37:33;14.10;99.90
3564;DHT22;1796;52.388;13.096;2023-05-02T13:40:00;13.80;99.90
3564;DHT22;1796;52.388;13.096;2023-05-02T13:42:27;13.80;99.90
3564;DHT22;1796;52.388;13.096;2023-05-02T13:44:54;13.90;99.90
3564;DHT22;1796;52.388;13.096;2023-05-02T13:47:21;13.90;99.90
3564;DHT22;1796;52.388;13.096;2023-05-02T13:49:48;13.70;99.90
3564;DHT22;1796;52.388;13.096;2023-05-02T13:52:16;13.70;99.90
3564;DHT22;1796;52.388;13.096;2023-05-02T13:54:43;13.50;99.90
3564;DHT22;1796;52.388;13.096;2023-05-02T13:57:10;13.30;99.90
3564;DHT22;1796;52.388;13.096;2023-05-02T13:59:37;13.10;99.90
3564;DHT22;1796;52.388;13.096;2023-05-02T14:02:04;13.10;99.90
3564;DHT22;1796;52.388;13.096;2023-05-02T14:04:31;12.90;99.90
3564;DHT22;1796;52.388;13.096;2023-05-02T14:06:58;12.90;99.90
3564;DHT22;1796;52.388;13.096;2023-05-02T14:09:26;12.80;99.90
3564;DHT22;1796;52.388;13.096;2023-05-02T14:11:53;12.90;99.90
3564;DHT22;1796;52.388;13.096;2023-05-02T14:14:21;12.80;99.90
3564;DHT22;1796;52.388;13.096;2023-05-02T14:16:47;12.60;99.90
3564;DHT22;1796;52.388;13.096;2023-05-02T14:19:14;12.70;99.90
3564;DHT22;1796;52.388;13.096;2023-05-02T14:21:41;12.70;99.90
3564;DHT22;1796;52.388;13.096;2023-05-02T14:24:08;12.80;99.90
3564;DHT22;1796;52.388;13.096;2023-05-02T14:26:38;13.30;99.90
3564;DHT22;1796;52.388;13.096;2023-05-02T14:29:04;13.10;99.90
3564;DHT22;1796;52.388;13.096;2023-05-02T14:31:31;12.70;99.90
3564;DHT22;1796;52.388;13.096;2023-05-02T14:33:58;12.40;99.90
3564;DHT22;1796;52.388;13.096;2023-05-02T14:36:25;12.50;99.90
3564;DHT22;1796;52.388;13.096;2023-05-02T14:38:52;12.70;99.90
3564;DHT22;1796;52.388;13.096;2023-05-02T14:41:20;12.50;99.90
3564;DHT22;1796;52.388;13.096;2023-05-02T14:43:50;12.40;99.90
3564;DHT22;1796;52.388;13.096;2023-05-02T14:46:19;12.30;99.90
3564;DHT22;1796;52.388;13.096;2023-05-02T14:48:46;12.50;99.90
3564;DHT22;1796;52.388;13.096;2023-05-02T14:51:13;12.80;99.90
3564;DHT22;1796;52.388;13.096;2023-05-02T14:53:40;12.80;99.90
3564;DHT22;1796;52.388;13.096;2023-05-02T14:56:11;12.90;99.90
3564;DHT22;1796;52.388;13.096;2023-05-02T14:58:39;12.70;99.90
3564;DHT22;1796;52.388;13.096;2023-05-02T15:01:14;12.60;99.90
3564;DHT22;1796;52.388;13.096;2023-05-02T15:03:41;12.70;99.90
3564;DHT22;1796;52.388;13.096;2023-05-02T15:06:08;12.30;99.90
3564;DHT22;1796;52.388;13.096;2023-05-02T15:08:35;11.90;99.90
3564;DHT22;1796;52.388;13.096;2023-05-02T15:11:02;11.60;99.90
3564;DHT22;1796;52.388;13.096;2023-05-02T15:13:29;11.50;99.90
3564;DHT22;1796;52.388;13.096;2023-05-02T15:15:56;11.70;99.90
3564;DHT22;1796;52.388;13.096;2023-05-02T15:18:25;11.90;99.90
3564;DHT22;1796;52.388;13.096;2023-05-02T15:20:51;12.00;99.90
3564;DHT22;1796;52.388;13.096;2023-05-02T15:23:18;12.00;99.90
3564;DHT22;1796;52.388;13.096;2023-05-02T15:25:45;12.20;99.90
3564;DHT22;1796;52.388;13.096;2023-05-02T15:28:12;12.20;99.90
3564;DHT22;1796;52.388;13.096;2023-05-02T15:30:39;12.10;99.90
3564;DHT22;1796;52.388;13.096;2023-05-02T15:33:06;12.10;99.90
3564;DHT22;1796;52.388;13.096;2023-05-02T15:35:34;11.70;99.90
3564;DHT22;1796;52.388;13.096;2023-05-02T15:38:01;11.60;99.90
3564;DHT22;1796;52.388;13.096;2023-05-02T15:40:28;11.50;99.90
3564;DHT22;1796;52.388;13.096;2023-05-02T15:42:55;11.50;99.90
3564;DHT22;1796;52.388;13.096;2023-05-02T15:45:22;11.40;99.90
3564;DHT22;1796;52.388;13.096;2023-05-02T15:47:49;11.50;99.90
3564;DHT22;1796;52.388;13.096;2023-05-02T15:50:16;11.50;99.90
3564;DHT22;1796;52.388;13.096;2023-05-02T15:52:45;11.40;99.90
3564;DHT22;1796;52.388;13.096;2023-05-02T15:55:12;11.40;99.90
3564;DHT22;1796;52.388;13.096;2023-05-02T15:57:39;11.40;99.90
3564;DHT22;1796;52.388;13.096;2023-05-02T16:00:07;11.40;99.90